Time;durP1;ratioP1;P1;durP2;ratioP2;P2;SDS_P1;SDS_P2;PMS_P1;PMS_P2;Temp;Humidity;BMP_temperature;BMP_pressure;BME280_temperature;BME280_humidity;BME280_pressure;Samples;Min_cycle;Max_cycle;Signal;HPM_P1;HPM_P2
2022/03/09 00:02:23;;;;;;;11.87;10.67;;;-1.60;99.00;;;-0.81;63.15;98480.19;5203341;28;20214;-59
2022/03/09 00:04:56;;;;;;;12.53;10.73;;;-1.60;98.40;;;-0.75;64.55;98470.81;5204057;28;20181;-60
2022/03/09 00:07:29;;;;;;;14.77;11.60;;;-1.60;98.40;;;-0.75;62.88;98470.81;5205153;28;20230;-58
2022/03/09 00:10:02;;;;;;;13.10;11.77;;;-1.60;98.50;;;-0.74;62.92;98465.09;5206109;28;20197;-60
2022/03/09 00:12:36;;;;;;;12.03;10.50;;;-1.60;98.70;;;-0.74;64.74;98475.13;5198793;28;20205;-60
2022/03/09 00:15:10;;;;;;;12.80;11.00;;;-1.60;98.80;;;-0.83;65.11;98475.00;5205829;28;20217;-57
2022/03/09 00:17:44;;;;;;;11.67;10.47;;;-1.60;99.00;;;-0.86;64.69;98471.25;5205575;28;20218;-58
2022/03/09 00:20:18;;;;;;;11.67;10.47;;;-1.60;98.90;;;-0.81;63.46;98480.19;5206059;28;20694;-60
2022/03/09 00:22:51;;;;;;;11.03;10.03;;;-1.60;98.80;;;-0.77;63.91;98478.19;5205627;28;20206;-60
2022/03/09 00:25:24;;;;;;;12.27;11.03;;;-1.60;98.80;;;-0.73;64.78;98479.41;5205930;28;20190;-60
2022/03/09 00:27:58;;;;;;;11.70;10.60;;;-1.70;99.10;;;-0.89;63.97;98488.47;5205178;28;20217;-60
2022/03/09 00:30:31;;;;;;;13.03;10.70;;;-1.70;98.80;;;-0.96;65.18;98487.78;5205259;28;20210;-57
2022/03/09 00:33:05;;;;;;;11.87;10.03;;;-1.80;99.00;;;-1.06;64.58;98486.59;5205964;28;20194;-56
2022/03/09 00:35:39;;;;;;;11.83;10.53;;;-1.80;98.60;;;-1.06;64.37;98502.56;5205255;28;20221;-58
2022/03/09 00:38:13;;;;;;;11.67;10.47;;;-1.90;99.20;;;-1.09;65.65;98498.78;5200907;28;20310;-59
2022/03/09 00:40:48;;;;;;;11.03;9.17;;;-1.90;99.50;;;-1.16;64.86;98504.75;5205555;28;20193;-59
2022/03/09 00:43:21;;;;;;;14.50;10.80;;;-1.90;99.00;;;-1.18;65.14;98498.66;5205138;28;20572;-60
2022/03/09 00:45:54;;;;;;;11.00;9.67;;;-1.90;99.20;;;-1.18;64.56;98507.06;5205559;28;20565;-60
2022/03/09 00:48:28;;;;;;;12.13;9.57;;;-1.90;99.80;;;-1.20;66.04;98502.63;5204892;28;20224;-60
2022/03/09 00:51:02;;;;;;;12.40;9.43;;;-2.00;99.90;;;-1.22;65.68;98501.56;5205550;28;20189;-60
2022/03/09 00:53:35;;;;;;;11.40;9.80;;;-2.10;99.90;;;-1.21;66.80;98499.19;5205028;28;20213;-60
2022/03/09 00:56:08;;;;;;;11.00;9.87;;;-2.00;99.90;;;-1.22;66.73;98499.06;5204570;28;20208;-60
2022/03/09 00:58:44;;;;;;;11.63;9.93;;;-2.10;99.90;;;-1.31;66.04;98508.06;5204969;28;20222;-60
2022/03/09 01:01:17;;;;;;;11.17;9.73;;;-2.10;99.80;;;-1.33;66.37;98499.47;5205475;28;20198;-60
2022/03/09 01:03:52;;;;;;;11.30;10.10;;;-2.10;99.90;;;-1.56;66.99;98495.25;5204905;28;20689;-60
2022/03/09 01:06:25;;;;;;;11.27;9.73;;;-2.20;99.90;;;-1.60;67.02;98505.66;5205423;28;20201;-60
2022/03/09 01:08:59;;;;;;;11.23;9.77;;;-2.30;99.90;;;-1.66;66.22;98507.44;5204838;28;20230;-59
2022/03/09 01:11:32;;;;;;;11.70;9.30;;;-2.40;99.90;;;-1.59;67.05;98510.81;5204846;28;20206;-60
2022/03/09 01:14:05;;;;;;;12.63;11.17;;;-2.30;99.90;;;-1.48;67.56;98509.53;5205018;28;20584;-60
2022/03/09 01:16:38;;;;;;;11.53;10.20;;;-2.20;99.90;;;-1.43;66.77;98515.97;5205400;28;20197;-60
2022/03/09 01:19:13;;;;;;;12.17;10.17;;;-2.20;99.90;;;-1.47;67.41;98515.44;5204973;28;20226;-59
2022/03/09 01:21:46;;;;;;;10.50;9.47;;;-2.20;99.90;;;-1.52;67.05;98511.50;5204708;28;20201;-59
2022/03/09 01:24:19;;;;;;;10.17;9.13;;;-2.20;99.90;;;-1.56;67.60;98507.78;5204748;28;20204;-60
2022/03/09 01:26:52;;;;;;;11.33;9.57;;;-2.30;99.90;;;-1.51;66.57;98504.19;5204790;28;20202;-58
2022/03/09 01:29:25;;;;;;;12.17;10.20;;;-2.30;99.90;;;-1.66;66.75;98507.44;5205507;28;20221;-58
2022/03/09 01:31:58;;;;;;;12.30;9.83;;;-2.40;99.90;;;-1.68;67.17;98496.38;5204379;28;20202;-60
2022/03/09 01:34:33;;;;;;;11.30;9.60;;;-2.40;99.90;;;-1.73;67.42;98500.84;5204102;28;20232;-58
2022/03/09 01:37:06;;;;;;;10.80;9.90;;;-2.40;99.90;;;-1.75;68.42;98498.88;5203246;28;20194;-59
2022/03/09 01:39:39;;;;;;;10.97;9.83;;;-2.40;99.90;;;-1.66;67.43;98492.41;5203578;28;20230;-59
2022/03/09 01:42:12;;;;;;;10.60;9.50;;;-2.40;99.90;;;-1.63;67.82;98485.22;5202870;28;20431;-59
2022/03/09 01:44:47;;;;;;;10.60;9.50;;;-2.40;99.90;;;-1.62;67.75;98485.41;5205082;28;20193;-58
2022/03/09 01:47:20;;;;;;;11.83;10.27;;;-2.40;99.90;;;-1.76;67.38;98487.09;5205280;28;20210;-60
2022/03/09 01:49:55;;;;;;;11.13;10.03;;;-2.50;99.90;;;-1.78;67.22;98488.50;5204879;28;20611;-59
2022/03/09 01:52:28;;;;;;;11.03;9.70;;;-2.50;99.90;;;-1.74;67.38;98480.66;5204825;28;20197;-60
2022/03/09 01:55:01;;;;;;;10.00;9.00;;;-2.50;99.90;;;-1.72;67.52;98476.69;5204119;28;20228;-60
2022/03/09 01:57:35;;;;;;;11.83;9.97;;;-2.50;99.90;;;-1.73;67.66;98482.41;5203166;28;20198;-59
2022/03/09 02:00:10;;;;;;;11.40;10.33;;;-2.40;99.90;;;-1.74;67.63;98479.03;5203078;28;20198;-57
2022/03/09 02:02:43;;;;;;;11.43;9.87;;;-2.50;99.90;;;-1.68;67.74;98474.69;5204356;28;20205;-60
2022/03/09 02:05:18;;;;;;;13.83;10.43;;;-2.40;99.90;;;-1.65;67.24;98470.03;5204624;28;20217;-59
2022/03/09 02:10:42;;;;;;;12.50;11.00;;;-2.50;99.90;;;-1.84;67.39;98469.53;5206590;28;20194;-59
2022/03/09 02:13:15;;;;;;;10.60;9.57;;;-2.60;99.90;;;-1.87;67.77;98465.81;5206492;28;20569;-58
2022/03/09 02:15:49;;;;;;;11.20;9.40;;;-2.70;99.90;;;-1.94;67.49;98469.25;5208023;28;20214;-59
2022/03/09 02:18:22;;;;;;;11.10;10.00;;;-2.70;99.90;;;-1.96;68.12;98467.28;5208132;28;20226;-60
2022/03/09 02:21:03;;;;;;;11.33;10.10;;;-2.60;99.90;;;-1.95;68.78;98472.44;5207408;28;20685;-59
2022/03/09 02:23:37;;;;;;;9.40;8.13;;;-2.60;99.90;;;-1.87;68.71;98473.31;5206675;28;20221;-60
2022/03/09 02:26:10;;;;;;;10.97;9.90;;;-2.60;99.90;;;-1.85;67.93;98471.91;5207294;28;20204;-59
2022/03/09 02:28:48;;;;;;;10.50;9.50;;;-2.60;99.90;;;-1.81;67.90;98471.50;5205884;28;20218;-60
2022/03/09 02:31:21;;;;;;;11.40;10.17;;;-2.60;99.90;;;-1.88;67.79;98469.03;5207959;28;20204;-58
2022/03/09 02:33:55;;;;;;;11.53;9.70;;;-2.60;99.90;;;-1.87;68.18;98461.69;5207547;28;20285;-57
2022/03/09 02:36:28;;;;;;;11.40;10.40;;;-2.50;99.90;;;-1.90;67.32;98463.84;5207709;28;20248;-58
2022/03/09 02:39:02;;;;;;;11.03;9.83;;;-2.60;99.90;;;-1.91;66.77;98463.69;5206828;28;20218;-59
2022/03/09 02:41:35;;;;;;;11.53;10.33;;;-2.60;99.90;;;-1.89;66.87;98457.22;5206099;28;20197;-60
2022/03/09 02:44:09;;;;;;;11.77;10.63;;;-2.60;99.90;;;-1.91;66.95;98462.06;5206396;28;20213;-59
2022/03/09 02:46:42;;;;;;;13.20;10.63;;;-2.60;99.90;;;-1.90;67.08;98460.44;5206504;28;20198;-59
2022/03/09 02:49:15;;;;;;;11.63;10.43;;;-2.60;99.90;;;-1.91;67.89;98459.56;5207280;28;20605;-60
2022/03/09 02:51:48;;;;;;;11.43;9.97;;;-2.60;99.90;;;-1.89;68.05;98458.13;5205811;28;20205;-59
2022/03/09 02:54:23;;;;;;;11.67;10.23;;;-2.50;99.90;;;-1.87;67.95;98456.69;5206316;28;20200;-60
2022/03/09 02:56:56;;;;;;;13.40;10.20;;;-2.50;99.90;;;-1.86;67.69;98453.47;5206833;28;20209;-58
2022/03/09 02:59:33;;;;;;;11.43;10.23;;;-2.50;99.90;;;-1.88;67.56;98459.91;5207116;28;20693;-57
2022/03/09 03:02:06;;;;;;;10.73;9.60;;;-2.50;99.90;;;-1.85;67.52;98462.75;5205609;28;20194;-57
2022/03/09 03:04:39;;;;;;;12.40;11.10;;;-2.50;99.90;;;-1.88;67.84;98454.91;5206055;28;20198;-60
2022/03/09 03:07:12;;;;;;;10.63;9.57;;;-2.50;99.90;;;-1.87;68.17;98451.66;5206527;28;20582;-59
2022/03/09 03:09:46;;;;;;;12.63;10.23;;;-2.60;99.90;;;-1.71;68.26;98461.84;5206946;28;20221;-60
2022/03/09 03:12:19;;;;;;;11.53;10.17;;;-2.70;99.90;;;-1.76;67.96;98465.41;5207308;28;20205;-58
2022/03/09 03:14:52;;;;;;;10.97;9.70;;;-2.80;99.90;;;-1.82;67.95;98470.63;5207220;28;20198;-60
2022/03/09 03:17:25;;;;;;;11.93;10.73;;;-2.80;99.90;;;-1.92;68.99;98470.28;5206859;28;20218;-60
2022/03/09 03:19:58;;;;;;;11.80;10.40;;;-2.80;99.90;;;-2.05;69.31;98465.50;5206353;28;20191;-56
2022/03/09 03:22:31;;;;;;;12.87;11.50;;;-2.80;99.90;;;-2.20;70.05;98472.84;5205338;28;20194;-55
2022/03/09 03:25:06;;;;;;;13.20;11.17;;;-2.90;99.90;;;-2.21;70.08;98461.94;5204889;28;20208;-60
2022/03/09 03:27:39;;;;;;;11.70;9.60;;;-3.00;99.90;;;-2.28;69.00;98465.34;5205101;28;20209;-56
2022/03/09 03:30:12;;;;;;;10.77;9.33;;;-3.00;99.90;;;-2.25;68.89;98468.94;5207279;28;20218;-60
2022/03/09 03:32:45;;;;;;;11.93;10.60;;;-3.00;99.90;;;-2.17;69.10;98464.09;5205354;28;20202;-56
2022/03/09 03:35:19;;;;;;;12.13;10.17;;;-2.90;99.90;;;-2.13;68.60;98463.72;5206252;28;20202;-58
2022/03/09 03:37:52;;;;;;;11.40;10.30;;;-3.00;99.90;;;-2.18;69.81;98466.41;5205009;28;20228;-60
2022/03/09 03:40:26;;;;;;;10.87;9.77;;;-3.00;99.90;;;-2.20;69.49;98472.84;5205454;28;20201;-60
2022/03/09 03:42:59;;;;;;;11.20;9.97;;;-3.00;99.90;;;-2.12;70.38;98472.13;5204949;28;20658;-57
2022/03/09 03:45:33;;;;;;;11.33;10.20;;;-2.90;99.90;;;-2.07;69.64;98471.03;5205677;28;20198;-58
2022/03/09 03:48:07;;;;;;;13.63;10.97;;;-3.00;99.90;;;-2.04;69.25;98486.41;5205171;28;20245;-57
2022/03/09 03:50:40;;;;;;;10.97;9.87;;;-3.00;99.90;;;-2.03;69.42;98485.72;5206281;28;20210;-55
2022/03/09 03:53:13;;;;;;;12.37;9.93;;;-3.00;99.90;;;-2.16;70.11;98490.91;5207240;28;20630;-60
2022/03/09 03:55:47;;;;;;;11.30;10.10;;;-3.10;99.90;;;-2.19;70.06;98489.66;5207987;28;20226;-60
2022/03/09 03:58:20;;;;;;;13.93;11.27;;;-3.10;99.90;;;-2.25;70.02;98488.97;5206346;28;20615;-60
2022/03/09 04:00:54;;;;;;;12.10;10.57;;;-3.10;99.90;;;-2.29;70.64;98491.13;5204846;28;20201;-60
2022/03/09 04:03:27;;;;;;;11.53;10.43;;;-3.10;99.90;;;-2.27;70.19;98494.66;5204870;28;20209;-59
2022/03/09 04:06:02;;;;;;;13.70;10.53;;;-3.10;99.90;;;-2.36;70.32;98501.13;5206848;28;20289;-60
2022/03/09 04:08:35;;;;;;;12.03;10.70;;;-3.20;99.90;;;-2.39;70.68;98504.88;5206265;28;20229;-60
2022/03/09 04:11:10;;;;;;;12.47;10.83;;;-3.20;99.90;;;-2.37;71.00;98501.84;5205985;28;20212;-60
2022/03/09 04:13:44;;;;;;;11.97;10.77;;;-3.20;99.90;;;-2.41;70.34;98502.19;5205673;28;20201;-59
2022/03/09 04:16:17;;;;;;;11.77;10.30;;;-3.20;99.90;;;-2.43;70.86;98503.63;5204180;28;20217;-59
2022/03/09 04:18:50;;;;;;;12.10;10.90;;;-3.20;99.90;;;-2.58;70.64;98502.72;5204458;28;20579;-60
2022/03/09 04:21:23;;;;;;;13.27;11.20;;;-3.30;99.90;;;-2.61;69.84;98496.47;5206308;28;20667;-57
2022/03/09 04:23:57;;;;;;;11.80;10.57;;;-3.40;99.90;;;-2.79;70.48;98500.19;5205274;28;20236;-59
2022/03/09 04:26:31;;;;;;;11.53;9.77;;;-3.60;99.90;;;-2.87;70.65;98503.41;5204749;28;20201;-59
2022/03/09 04:29:04;;;;;;;10.47;9.53;;;-3.60;99.90;;;-2.87;70.52;98500.91;5205421;28;20836;-60
2022/03/09 04:31:37;;;;;;;10.27;9.03;;;-3.60;99.90;;;-2.75;71.36;98505.75;5205398;28;20232;-60
2022/03/09 04:34:13;;;;;;;10.03;9.10;;;-3.50;99.90;;;-2.71;72.08;98507.00;5206519;28;20208;-60
2022/03/09 04:36:46;;;;;;;12.40;11.23;;;-3.40;99.90;;;-2.70;71.47;98500.38;5203851;28;20605;-59
2022/03/09 04:39:19;;;;;;;12.30;11.17;;;-3.40;99.90;;;-2.64;70.72;98503.59;5211472;28;20724;-59
2022/03/09 04:41:53;;;;;;;14.47;13.07;;;-3.40;99.90;;;-2.75;70.74;98500.75;5205240;28;20200;-60
2022/03/09 04:44:26;;;;;;;13.63;11.30;;;-3.40;99.90;;;-2.76;71.09;98506.44;5204014;28;20307;-60
2022/03/09 04:46:59;;;;;;;11.90;10.70;;;-3.50;99.90;;;-2.73;72.24;98501.81;5201723;28;20202;-60
2022/03/09 04:49:33;;;;;;;13.30;10.67;;;-3.40;99.90;;;-2.75;71.95;98510.75;5202650;28;20270;-60
2022/03/09 04:52:07;;;;;;;11.90;10.60;;;-3.40;99.90;;;-2.77;71.77;98508.78;5204083;28;20682;-60
2022/03/09 04:54:40;;;;;;;13.10;11.40;;;-3.50;99.90;;;-2.76;71.75;98506.44;5203790;28;20205;-60
2022/03/09 04:57:15;;;;;;;13.37;11.57;;;-3.50;99.90;;;-2.87;72.01;98509.28;5201179;28;20241;-60
2022/03/09 04:59:48;;;;;;;13.17;10.77;;;-3.50;99.90;;;-2.87;71.60;98508.41;5204065;28;20710;-60
2022/03/09 05:02:21;;;;;;;12.47;10.13;;;-3.50;99.90;;;-2.87;71.94;98506.78;5203549;28;20202;-61
2022/03/09 05:04:54;;;;;;;13.07;10.90;;;-3.50;99.90;;;-2.78;72.01;98506.97;5204267;28;20838;-61
2022/03/09 05:07:28;;;;;;;11.37;10.27;;;-3.40;99.90;;;-2.89;72.61;98510.75;5204576;28;20209;-61
2022/03/09 05:10:01;;;;;;;11.50;10.30;;;-3.50;99.90;;;-2.87;71.96;98506.78;5204738;28;20204;-61
2022/03/09 05:12:36;;;;;;;12.87;11.10;;;-3.50;99.90;;;-2.72;71.27;98506.13;5204079;28;20206;-62
2022/03/09 05:15:10;;;;;;;12.03;10.93;;;-3.40;99.90;;;-2.75;71.63;98508.25;5204915;28;20222;-62
2022/03/09 05:17:44;;;;;;;12.90;9.70;;;-3.40;99.90;;;-2.68;71.24;98514.88;5205244;28;20695;-61
2022/03/09 05:20:17;;;;;;;12.00;10.83;;;-3.40;99.90;;;-2.69;71.37;98515.56;5203952;28;20648;-60
2022/03/09 05:22:52;;;;;;;11.77;10.53;;;-3.40;99.90;;;-2.74;71.54;98510.03;5204406;28;20650;-61
2022/03/09 05:25:25;;;;;;;11.67;10.53;;;-3.40;99.90;;;-2.73;71.79;98520.94;5203227;28;20199;-61
2022/03/09 05:28:00;;;;;;;12.53;11.07;;;-3.40;99.90;;;-2.78;71.38;98527.88;5204168;28;20218;-62
2022/03/09 05:30:34;;;;;;;12.10;10.60;;;-3.50;99.90;;;-2.73;71.93;98524.31;5193802;28;20204;-62
2022/03/09 05:33:07;;;;;;;13.23;11.87;;;-3.40;99.90;;;-2.75;72.30;98523.28;5204900;28;20241;-61
2022/03/09 05:35:40;;;;;;;15.13;11.50;;;-3.40;99.90;;;-2.67;71.76;98524.16;5204946;28;20207;-61
2022/03/09 05:38:13;;;;;;;14.07;11.43;;;-3.30;99.90;;;-2.59;72.27;98522.56;5204406;28;20229;-59
2022/03/09 05:40:46;;;;;;;15.70;12.50;;;-3.30;99.90;;;-2.59;72.15;98520.06;5203548;28;20535;-61
2022/03/09 05:43:20;;;;;;;14.07;12.37;;;-3.20;99.90;;;-2.57;71.69;98528.66;5204841;28;20212;-60
2022/03/09 05:45:53;;;;;;;15.87;12.93;;;-3.20;99.90;;;-2.53;72.31;98533.28;5198677;28;20524;-61
2022/03/09 05:48:26;;;;;;;15.30;12.90;;;-3.10;99.90;;;-2.43;71.36;98541.16;5207229;28;20576;-61
2022/03/09 05:50:59;;;;;;;14.57;12.60;;;-3.20;99.90;;;-2.31;71.51;98550.09;5206564;28;20207;-61
2022/03/09 05:53:33;;;;;;;15.43;12.10;;;-3.10;99.90;;;-2.29;71.23;98552.78;5208114;28;20686;-60
2022/03/09 05:56:06;;;;;;;12.90;11.67;;;-3.00;99.90;;;-2.35;71.23;98545.44;5208113;28;20208;-61
2022/03/09 05:58:41;;;;;;;17.50;12.33;;;-3.10;99.90;;;-2.31;71.85;98550.09;5207960;28;20228;-61
2022/03/09 06:01:15;;;;;;;16.73;13.17;;;-3.10;99.90;;;-2.36;71.68;98546.16;5206724;28;20199;-61
2022/03/09 06:03:48;;;;;;;14.80;13.30;;;-3.20;99.90;;;-2.46;71.67;98550.81;5207345;28;20213;-60
2022/03/09 06:06:21;;;;;;;15.70;13.03;;;-3.20;99.90;;;-2.48;71.42;98549.75;5207150;28;20719;-60
2022/03/09 06:08:54;;;;;;;14.40;12.60;;;-3.20;99.90;;;-2.44;71.87;98556.00;5208012;28;20228;-61
2022/03/09 06:11:27;;;;;;;15.47;12.57;;;-3.20;99.90;;;-2.36;70.81;98560.28;5207129;28;20201;-60
2022/03/09 06:14:01;;;;;;;15.20;12.40;;;-3.10;99.90;;;-2.30;71.25;98569.41;5204355;28;20210;-60
2022/03/09 06:16:34;;;;;;;13.70;11.77;;;-3.00;99.90;;;-2.30;71.83;98569.41;5203833;28;20205;-59
2022/03/09 06:19:07;;;;;;;15.33;13.77;;;-3.00;99.90;;;-2.25;71.70;98569.97;5206808;28;20244;-58
2022/03/09 06:21:41;;;;;;;15.00;13.40;;;-2.90;99.90;;;-2.09;72.06;98565.13;5208224;28;20291;-59
2022/03/09 06:24:16;;;;;;;15.40;13.80;;;-2.80;99.90;;;-1.84;71.89;98574.75;5206543;28;20227;-59
2022/03/09 06:26:50;;;;;;;14.47;12.83;;;-2.70;99.90;;;-1.50;70.79;98566.13;5205522;28;20217;-60
2022/03/09 06:29:24;;;;;;;14.50;12.10;;;-2.40;99.90;;;-1.03;69.43;98574.72;5205910;28;20210;-59
2022/03/09 06:32:00;;;;;;;13.13;11.03;;;-2.10;99.90;;;-0.87;68.99;98582.38;5205707;28;20281;-60
2022/03/09 06:34:34;;;;;;;13.80;12.03;;;-1.90;99.90;;;-0.56;67.78;98584.19;5206974;28;20210;-59
2022/03/09 06:37:07;;;;;;;14.53;11.03;;;-1.60;99.90;;;-0.22;66.87;98577.88;5205051;28;20654;-60
2022/03/09 06:39:40;;;;;;;18.83;13.60;;;-1.50;99.90;;;-0.07;66.40;98577.91;5208209;28;20230;-59
2022/03/09 06:42:13;;;;;;;15.57;12.37;;;-1.20;99.90;;;0.27;65.62;98583.19;5205432;28;20206;-60
2022/03/09 06:44:48;;;;;;;15.07;11.47;;;-1.00;99.90;;;0.44;64.15;98586.78;5206323;28;20658;-58
2022/03/09 06:47:21;;;;;;;11.87;10.20;;;-0.80;99.90;;;0.82;63.17;98597.53;5206493;28;20633;-59
2022/03/09 06:49:54;;;;;;;14.23;11.97;;;-0.60;99.90;;;1.22;60.87;98594.16;5205218;28;20200;-61
2022/03/09 06:52:27;;;;;;;16.23;11.83;;;-0.40;99.30;;;1.59;59.94;98603.03;5206593;28;20734;-59
2022/03/09 06:55:02;;;;;;;16.73;13.00;;;-0.20;99.30;;;1.85;57.93;98602.31;5205891;28;20202;-60
2022/03/09 06:57:35;;;;;;;15.43;13.17;;;-0.10;98.40;;;2.13;57.24;98606.91;5206211;28;20581;-59
2022/03/09 07:00:15;;;;;;;18.10;14.30;;;0.20;98.20;;;2.00;57.48;98603.84;5205894;28;20203;-59
2022/03/09 07:02:48;;;;;;;15.27;13.63;;;0.50;97.90;;;1.90;56.91;98606.19;5206568;28;20628;-59
2022/03/09 07:05:21;;;;;;;14.47;12.97;;;0.50;97.30;;;2.22;57.22;98612.88;5206613;28;20627;-60
2022/03/09 07:07:54;;;;;;;13.20;11.87;;;0.70;97.10;;;2.33;57.27;98613.06;5205649;28;20223;-60
2022/03/09 07:10:28;;;;;;;13.57;11.80;;;1.00;96.90;;;2.53;56.96;98613.44;5205054;28;20335;-58
2022/03/09 07:13:01;;;;;;;13.73;11.77;;;1.20;96.50;;;2.64;57.16;98607.81;5205367;28;20209;-59
2022/03/09 07:15:37;;;;;;;12.73;11.43;;;1.50;96.20;;;2.61;54.84;98610.03;5206426;28;20648;-60
2022/03/09 07:18:10;;;;;;;13.60;12.20;;;1.50;94.90;;;2.82;55.01;98610.38;5206042;28;20228;-59
2022/03/09 07:20:44;;;;;;;14.73;13.23;;;1.50;95.10;;;3.05;54.22;98600.00;5205769;28;20202;-60
2022/03/09 07:23:17;;;;;;;14.07;12.57;;;1.80;94.40;;;3.15;53.67;98602.72;5205274;28;20216;-60
2022/03/09 07:25:50;;;;;;;14.13;12.73;;;1.80;94.40;;;3.34;53.70;98605.38;5204448;28;20208;-57
2022/03/09 07:28:23;;;;;;;14.97;13.47;;;2.00;94.20;;;3.44;53.27;98613.09;5204017;28;20220;-59
2022/03/09 07:30:57;;;;;;;14.17;12.60;;;2.10;94.30;;;3.48;53.61;98611.75;5205839;28;20201;-60
2022/03/09 07:33:30;;;;;;;14.93;13.03;;;2.20;93.90;;;3.45;53.61;98604.78;5205465;28;20197;-60
2022/03/09 07:36:05;;;;;;;15.27;13.73;;;2.30;93.70;;;3.42;53.60;98604.47;5205455;28;20225;-56
2022/03/09 07:38:39;;;;;;;14.63;12.53;;;2.40;93.80;;;3.85;53.22;98603.53;5195402;28;20305;-59
2022/03/09 07:41:32;;;;;;;15.13;13.30;;;2.70;93.60;;;4.06;52.20;98605.56;5205139;28;20551;-59
2022/03/09 07:44:06;;;;;;;17.63;14.73;;;3.00;93.00;;;4.25;52.63;98598.03;5205999;28;20297;-59
2022/03/09 07:46:40;;;;;;;17.60;14.20;;;3.10;93.00;;;4.50;51.98;98591.09;5205226;28;20670;-59
2022/03/09 07:49:13;;;;;;;17.10;15.30;;;3.40;92.70;;;4.72;51.00;98598.09;5201697;28;20610;-59
2022/03/09 07:51:47;;;;;;;15.60;13.90;;;3.60;92.20;;;4.72;51.39;98590.50;5204378;28;20215;-60
2022/03/09 07:54:20;;;;;;;16.50;14.80;;;3.60;92.20;;;4.89;50.54;98576.84;5206113;28;20216;-59
2022/03/09 07:56:53;;;;;;;15.53;13.83;;;3.60;91.90;;;5.02;49.96;98587.34;5206966;28;20189;-58
2022/03/09 07:59:26;;;;;;;15.03;13.43;;;3.80;91.40;;;5.02;49.85;98581.38;5206493;28;20226;-59
2022/03/09 08:02:01;;;;;;;15.37;13.87;;;3.90;91.10;;;4.72;48.40;98591.41;5204144;28;20200;-59
2022/03/09 08:04:34;;;;;;;14.80;13.27;;;3.70;90.00;;;4.86;49.16;98577.44;5202362;28;20665;-59
2022/03/09 08:07:07;;;;;;;18.63;14.97;;;3.60;90.70;;;5.17;49.08;98570.09;5203725;28;20612;-56
2022/03/09 08:09:40;;;;;;;15.03;13.53;;;4.10;90.00;;;5.47;47.81;98571.91;5205909;28;20218;-57
2022/03/09 08:12:13;;;;;;;14.73;13.23;;;4.50;88.90;;;5.56;47.52;98577.78;5200812;28;20235;-58
2022/03/09 08:14:46;;;;;;;13.70;12.33;;;4.70;88.60;;;5.73;47.58;98579.28;5206233;28;20214;-60
2022/03/09 08:17:21;;;;;;;14.40;13.00;;;4.80;88.20;;;6.01;47.29;98574.06;5205897;28;20204;-59
2022/03/09 08:19:54;;;;;;;14.33;12.83;;;5.10;88.80;;;6.32;47.41;98573.41;5204505;28;20218;-59
2022/03/09 08:22:27;;;;;;;15.63;13.97;;;5.30;88.20;;;6.37;46.67;98571.25;5205779;28;20194;-59
2022/03/09 08:25:00;;;;;;;14.37;12.90;;;5.50;87.60;;;6.67;46.54;98557.72;5204122;28;20224;-58
2022/03/09 08:27:33;;;;;;;16.37;13.50;;;5.80;87.60;;;6.98;46.70;98560.22;5203747;28;20224;-60
2022/03/09 08:30:08;;;;;;;15.70;13.23;;;5.90;87.90;;;7.11;46.79;98560.47;5205546;28;20187;-60
2022/03/09 08:32:43;;;;;;;15.67;13.53;;;6.00;87.50;;;7.17;46.08;98557.53;5205293;28;20292;-60
2022/03/09 08:35:16;;;;;;;15.17;13.57;;;6.10;86.70;;;7.32;46.20;98558.75;5205804;28;20657;-60
2022/03/09 08:37:49;;;;;;;14.87;13.37;;;6.30;86.70;;;7.40;45.69;98551.75;5204864;28;20635;-60
2022/03/09 08:40:22;;;;;;;15.40;13.80;;;6.50;86.40;;;7.58;44.88;98547.25;5204931;28;20236;-59
2022/03/09 08:42:55;;;;;;;16.00;14.40;;;6.80;84.90;;;7.84;44.86;98542.59;5203840;28;20224;-57
2022/03/09 08:45:28;;;;;;;15.13;13.03;;;7.00;84.70;;;8.15;44.48;98546.63;5203167;28;20213;-59
2022/03/09 08:48:03;;;;;;;16.73;14.03;;;7.20;84.80;;;8.32;43.58;98546.25;5202348;28;20218;-59
2022/03/09 08:50:36;;;;;;;14.80;13.37;;;7.30;83.80;;;8.45;43.82;98545.59;5203335;28;20201;-59
2022/03/09 08:53:13;;;;;;;14.43;12.97;;;7.50;82.90;;;8.50;42.82;98534.97;5204897;28;20202;-59
2022/03/09 08:55:46;;;;;;;15.10;13.60;;;7.50;81.80;;;8.69;42.42;98536.34;5205436;28;20199;-60
2022/03/09 08:58:19;;;;;;;14.70;13.07;;;7.60;82.40;;;8.85;42.11;98531.63;5204310;28;20226;-60
2022/03/09 09:00:52;;;;;;;15.03;13.53;;;7.90;81.60;;;8.90;42.33;98534.50;5202786;28;20194;-60
2022/03/09 09:03:30;;;;;;;14.10;12.60;;;7.90;81.40;;;8.97;42.07;98535.09;5205093;28;20263;-57
2022/03/09 09:06:03;;;;;;;15.87;13.67;;;8.00;80.90;;;9.18;41.24;98545.09;5205360;28;20202;-59
2022/03/09 09:08:37;;;;;;;14.53;13.13;;;8.20;79.70;;;9.43;41.23;98551.19;5205025;28;20218;-60
2022/03/09 09:11:10;;;;;;;15.23;13.70;;;8.50;79.90;;;9.54;39.79;98548.56;5204945;28;20202;-60
2022/03/09 09:13:43;;;;;;;14.60;13.17;;;8.80;77.40;;;9.63;40.25;98547.53;5205721;28;20193;-59
2022/03/09 09:16:16;;;;;;;14.83;13.13;;;8.90;76.90;;;9.73;39.34;98549.09;5205171;28;20197;-60
2022/03/09 09:18:51;;;;;;;15.17;13.53;;;9.00;75.40;;;9.74;38.46;98553.41;5210394;28;20279;-59
2022/03/09 09:21:25;;;;;;;15.90;13.43;;;9.00;74.50;;;9.85;38.03;98552.50;5212016;28;20240;-60
2022/03/09 09:23:58;;;;;;;15.57;13.97;;;9.10;73.70;;;9.81;36.58;98559.84;5212637;28;20240;-60
2022/03/09 09:26:31;;;;;;;15.73;14.13;;;9.00;71.50;;;9.63;36.77;98556.88;5211958;28;20198;-60
2022/03/09 09:29:24;;;;;;;16.13;14.03;;;8.80;71.30;;;9.70;37.52;98554.88;5212262;28;20222;-58
2022/03/09 09:31:57;;;;;;;16.03;14.40;;;9.00;73.00;;;9.85;37.10;98552.50;5212144;28;20224;-60
2022/03/09 09:34:32;;;;;;;16.83;15.10;;;9.30;71.60;;;10.09;36.79;98555.00;5212344;28;20335;-60
2022/03/09 09:37:05;;;;;;;15.93;14.33;;;9.50;70.70;;;10.27;36.06;98553.78;5211996;28;20554;-60
2022/03/09 09:39:38;;;;;;;16.23;14.53;;;9.60;70.20;;;9.91;36.44;98560.59;5211044;28;20669;-59
2022/03/09 09:42:11;;;;;;;16.23;14.53;;;9.30;70.10;;;9.90;36.25;98558.84;5212567;28;20193;-60
2022/03/09 09:44:45;;;;;;;15.47;13.87;;;9.20;70.40;;;10.17;36.35;98553.00;5212782;28;20190;-59
2022/03/09 09:47:18;;;;;;;16.43;14.73;;;9.50;70.80;;;10.26;35.20;98544.28;5210219;28;20204;-56
2022/03/09 09:49:53;;;;;;;17.10;15.40;;;9.60;69.40;;;10.36;34.25;98539.09;5209216;28;20224;-58
2022/03/09 09:52:27;;;;;;;16.37;14.67;;;9.60;68.60;;;10.41;35.32;98541.06;5211934;28;20193;-56
2022/03/09 09:55:02;;;;;;;16.37;14.57;;;9.80;69.10;;;10.43;35.42;98539.50;5211892;28;20554;-56
2022/03/09 09:57:35;;;;;;;16.80;15.00;;;9.80;68.40;;;10.34;34.95;98527.88;5211503;28;20554;-58
2022/03/09 10:00:10;;;;;;;17.43;15.60;;;9.70;69.20;;;10.30;35.57;98538.69;5211835;28;20247;-56
2022/03/09 10:02:44;;;;;;;17.07;15.37;;;9.70;69.00;;;10.70;35.40;98538.84;5214150;28;20201;-59
2022/03/09 10:05:19;;;;;;;17.00;15.33;;;10.10;68.10;;;10.97;33.58;98541.44;5217522;28;20208;-58
2022/03/09 10:08:10;;;;;;;18.13;16.33;;;10.40;66.50;;;11.10;33.74;98536.34;5211724;28;20628;-60
2022/03/09 10:10:54;;;;;;;20.27;16.40;;;10.40;66.80;;;11.08;33.43;98532.81;5211171;28;20198;-57
2022/03/09 10:13:29;;;;;;;19.07;16.40;;;10.50;65.60;;;11.36;32.13;98534.59;5211556;28;20212;-60
2022/03/09 10:16:12;;;;;;;17.77;15.40;;;10.70;64.50;;;11.41;32.61;98539.22;5211140;28;20204;-59
2022/03/09 10:18:54;;;;;;;18.07;16.30;;;10.70;64.40;;;11.52;32.11;98534.81;5195882;28;20214;-57
2022/03/09 10:21:35;;;;;;;17.93;16.20;;;10.90;63.50;;;11.54;32.16;98530.69;5210731;28;20193;-58
2022/03/09 10:24:11;;;;;;;17.57;15.70;;;10.90;63.90;;;11.63;31.41;98544.06;5211573;28;20636;-60
2022/03/09 10:26:48;;;;;;;17.13;15.43;;;11.10;63.00;;;11.54;31.50;98543.47;5205642;28;20628;-57
2022/03/09 10:29:21;;;;;;;18.27;16.33;;;10.90;62.70;;;11.55;31.36;98540.13;5207813;28;20232;-60
2022/03/09 10:31:59;;;;;;;17.83;16.07;;;10.90;62.30;;;11.42;32.24;98540.13;5205648;28;20197;-59
2022/03/09 10:34:37;;;;;;;17.50;15.73;;;10.80;63.50;;;11.48;32.23;98543.97;5207979;28;20190;-57
2022/03/09 10:37:11;;;;;;;19.10;17.10;;;10.80;63.40;;;11.44;32.16;98543.66;5207762;28;20800;-60
2022/03/09 10:39:44;;;;;;;19.47;17.57;;;10.90;64.20;;;11.55;32.44;98544.38;5204109;28;20248;-60
2022/03/09 10:42:24;;;;;;;19.30;17.00;;;11.00;63.60;;;11.45;32.56;98550.56;5207737;28;20198;-57